In Rescue
 
Open Full Screen Window  High Contrast Mode
Wind Gusting 00 knots
09
March 01, 2024 2:35 PM CST
Weather Information
Wind Direction
  200 °
Wind Speed
  09 kt (10 mph)
Wind Gust
  00 kt (0 mph)
Altimeter
29.70 in
Visibility
10 SM
Temperature
09° C
48° F
Dewpoint
-01° C
30° F
Humidity
50%
Sky Condition
Clear
VFR

METAR KTWM 012035Z AUTO 20009KT 10SM CLR 09/M01 A2970 RMK AO2

FAA Disclaimer: The data displayed is for advisory purposes only and is not to be used for flight planning or operations.